sensor_id;sensor_type;location;lat;lon;timestamp;P1;durP1;ratioP1;P2;durP2;ratioP2
74309;SDS011;62722;51.142;17.052;2022-09-09T00:01:58;10.50;;;6.80;;
74309;SDS011;62722;51.142;17.052;2022-09-09T00:04:28;9.45;;;6.50;;
74309;SDS011;62722;51.142;17.052;2022-09-09T00:06:59;9.15;;;6.20;;
74309;SDS011;62722;51.142;17.052;2022-09-09T00:09:31;12.93;;;7.30;;
74309;SDS011;62722;51.142;17.052;2022-09-09T00:12:05;11.05;;;7.07;;
74309;SDS011;62722;51.142;17.052;2022-09-09T00:14:40;11.98;;;7.32;;
74309;SDS011;62722;51.142;17.052;2022-09-09T00:17:14;10.85;;;6.45;;
74309;SDS011;62722;51.142;17.052;2022-09-09T00:19:53;11.45;;;6.88;;
74309;SDS011;62722;51.142;17.052;2022-09-09T00:22:23;9.45;;;6.30;;
74309;SDS011;62722;51.142;17.052;2022-09-09T00:24:55;11.80;;;7.43;;
74309;SDS011;62722;51.142;17.052;2022-09-09T00:27:37;12.80;;;7.18;;
74309;SDS011;62722;51.142;17.052;2022-09-09T00:30:13;14.63;;;6.63;;
74309;SDS011;62722;51.142;17.052;2022-09-09T00:32:45;12.48;;;7.80;;
74309;SDS011;62722;51.142;17.052;2022-09-09T00:35:15;11.10;;;7.15;;
74309;SDS011;62722;51.142;17.052;2022-09-09T00:37:44;11.25;;;6.72;;
74309;SDS011;62722;51.142;17.052;2022-09-09T00:42:53;14.65;;;7.60;;
74309;SDS011;62722;51.142;17.052;2022-09-09T00:45:45;11.13;;;7.53;;
74309;SDS011;62722;51.142;17.052;2022-09-09T00:48:41;12.18;;;7.05;;
74309;SDS011;62722;51.142;17.052;2022-09-09T00:51:20;12.80;;;7.22;;
74309;SDS011;62722;51.142;17.052;2022-09-09T00:53:58;11.18;;;7.28;;
74309;SDS011;62722;51.142;17.052;2022-09-09T00:56:38;12.57;;;7.63;;
74309;SDS011;62722;51.142;17.052;2022-09-09T00:59:16;14.85;;;8.13;;
74309;SDS011;62722;51.142;17.052;2022-09-09T01:01:53;11.95;;;7.28;;
74309;SDS011;62722;51.142;17.052;2022-09-09T01:04:25;12.15;;;7.40;;
74309;SDS011;62722;51.142;17.052;2022-09-09T01:07:01;11.45;;;7.88;;
74309;SDS011;62722;51.142;17.052;2022-09-09T01:09:35;13.18;;;7.35;;
74309;SDS011;62722;51.142;17.052;2022-09-09T01:12:11;11.48;;;7.88;;
74309;SDS011;62722;51.142;17.052;2022-09-09T01:14:42;11.38;;;7.20;;
74309;SDS011;62722;51.142;17.052;2022-09-09T01:17:15;12.45;;;7.85;;
74309;SDS011;62722;51.142;17.052;2022-09-09T01:19:50;12.68;;;8.27;;
74309;SDS011;62722;51.142;17.052;2022-09-09T01:22:30;12.50;;;8.25;;
74309;SDS011;62722;51.142;17.052;2022-09-09T01:27:51;11.55;;;6.93;;
74309;SDS011;62722;51.142;17.052;2022-09-09T01:30:21;11.68;;;7.82;;
74309;SDS011;62722;51.142;17.052;2022-09-09T01:32:50;12.70;;;8.05;;
74309;SDS011;62722;51.142;17.052;2022-09-09T01:35:22;9.95;;;7.65;;
74309;SDS011;62722;51.142;17.052;2022-09-09T01:37:58;12.05;;;7.78;;
74309;SDS011;62722;51.142;17.052;2022-09-09T01:40:25;11.95;;;7.93;;
74309;SDS011;62722;51.142;17.052;2022-09-09T01:42:55;11.73;;;8.15;;
74309;SDS011;62722;51.142;17.052;2022-09-09T01:45:23;11.85;;;7.68;;
74309;SDS011;62722;51.142;17.052;2022-09-09T01:47:52;12.73;;;7.85;;
74309;SDS011;62722;51.142;17.052;2022-09-09T01:50:19;11.23;;;7.57;;
74309;SDS011;62722;51.142;17.052;2022-09-09T01:52:48;10.05;;;7.65;;
74309;SDS011;62722;51.142;17.052;2022-09-09T01:55:19;11.55;;;8.32;;
74309;SDS011;62722;51.142;17.052;2022-09-09T01:57:57;11.60;;;8.18;;
74309;SDS011;62722;51.142;17.052;2022-09-09T02:00:31;13.07;;;8.38;;
74309;SDS011;62722;51.142;17.052;2022-09-09T02:03:05;11.57;;;8.02;;
74309;SDS011;62722;51.142;17.052;2022-09-09T02:05:40;11.77;;;8.07;;
74309;SDS011;62722;51.142;17.052;2022-09-09T02:08:11;11.10;;;7.28;;
74309;SDS011;62722;51.142;17.052;2022-09-09T02:10:45;11.20;;;7.28;;
74309;SDS011;62722;51.142;17.052;2022-09-09T02:13:18;11.23;;;7.45;;
74309;SDS011;62722;51.142;17.052;2022-09-09T02:15:50;11.40;;;8.23;;
74309;SDS011;62722;51.142;17.052;2022-09-09T02:18:24;11.80;;;7.85;;
74309;SDS011;62722;51.142;17.052;2022-09-09T02:20:55;10.93;;;7.28;;
74309;SDS011;62722;51.142;17.052;2022-09-09T02:23:24;11.23;;;7.65;;
74309;SDS011;62722;51.142;17.052;2022-09-09T02:25:51;13.30;;;7.50;;
74309;SDS011;62722;51.142;17.052;2022-09-09T02:28:22;11.55;;;7.97;;
74309;SDS011;62722;51.142;17.052;2022-09-09T02:30:52;10.95;;;7.70;;
74309;SDS011;62722;51.142;17.052;2022-09-09T02:33:21;10.93;;;7.15;;
74309;SDS011;62722;51.142;17.052;2022-09-09T02:35:51;11.20;;;7.93;;
74309;SDS011;62722;51.142;17.052;2022-09-09T02:38:27;12.88;;;9.02;;
74309;SDS011;62722;51.142;17.052;2022-09-09T02:40:57;12.85;;;8.10;;
74309;SDS011;62722;51.142;17.052;2022-09-09T02:43:30;12.95;;;8.10;;
74309;SDS011;62722;51.142;17.052;2022-09-09T02:46:00;11.63;;;8.05;;
74309;SDS011;62722;51.142;17.052;2022-09-09T02:48:36;12.15;;;8.18;;
74309;SDS011;62722;51.142;17.052;2022-09-09T02:51:15;10.15;;;7.47;;
74309;SDS011;62722;51.142;17.052;2022-09-09T02:53:55;11.68;;;7.55;;
74309;SDS011;62722;51.142;17.052;2022-09-09T02:56:27;11.43;;;7.95;;
74309;SDS011;62722;51.142;17.052;2022-09-09T02:59:02;12.07;;;8.02;;
74309;SDS011;62722;51.142;17.052;2022-09-09T03:01:30;13.50;;;8.60;;
74309;SDS011;62722;51.142;17.052;2022-09-09T03:03:57;16.27;;;10.20;;
74309;SDS011;62722;51.142;17.052;2022-09-09T03:06:24;17.00;;;9.38;;
74309;SDS011;62722;51.142;17.052;2022-09-09T03:08:52;14.15;;;8.77;;
74309;SDS011;62722;51.142;17.052;2022-09-09T03:11:19;11.73;;;8.30;;
74309;SDS011;62722;51.142;17.052;2022-09-09T03:13:47;11.48;;;7.97;;
74309;SDS011;62722;51.142;17.052;2022-09-09T03:16:16;11.57;;;7.60;;
74309;SDS011;62722;51.142;17.052;2022-09-09T03:18:43;15.90;;;7.88;;
74309;SDS011;62722;51.142;17.052;2022-09-09T03:21:10;13.15;;;7.75;;
74309;SDS011;62722;51.142;17.052;2022-09-09T03:23:37;11.75;;;7.93;;
74309;SDS011;62722;51.142;17.052;2022-09-09T03:26:04;12.80;;;8.18;;
74309;SDS011;62722;51.142;17.052;2022-09-09T03:28:32;13.57;;;8.07;;
74309;SDS011;62722;51.142;17.052;2022-09-09T03:30:59;11.75;;;8.23;;
74309;SDS011;62722;51.142;17.052;2022-09-09T03:33:28;11.68;;;8.18;;
74309;SDS011;62722;51.142;17.052;2022-09-09T03:35:55;10.15;;;7.13;;
74309;SDS011;62722;51.142;17.052;2022-09-09T03:38:23;11.55;;;8.05;;
74309;SDS011;62722;51.142;17.052;2022-09-09T03:40:50;12.20;;;8.23;;
74309;SDS011;62722;51.142;17.052;2022-09-09T03:43:20;12.27;;;7.90;;
74309;SDS011;62722;51.142;17.052;2022-09-09T03:45:47;14.13;;;7.78;;
74309;SDS011;62722;51.142;17.052;2022-09-09T03:48:15;11.68;;;8.30;;
74309;SDS011;62722;51.142;17.052;2022-09-09T03:50:47;11.63;;;7.22;;
74309;SDS011;62722;51.142;17.052;2022-09-09T03:53:17;10.65;;;7.45;;
74309;SDS011;62722;51.142;17.052;2022-09-09T03:55:46;10.35;;;7.13;;
74309;SDS011;62722;51.142;17.052;2022-09-09T03:58:14;10.63;;;7.32;;
74309;SDS011;62722;51.142;17.052;2022-09-09T04:00:44;11.35;;;7.13;;
74309;SDS011;62722;51.142;17.052;2022-09-09T04:03:20;12.20;;;7.50;;
74309;SDS011;62722;51.142;17.052;2022-09-09T04:05:49;12.88;;;8.27;;
74309;SDS011;62722;51.142;17.052;2022-09-09T04:08:17;10.05;;;7.20;;
74309;SDS011;62722;51.142;17.052;2022-09-09T04:10:44;12.60;;;8.50;;
74309;SDS011;62722;51.142;17.052;2022-09-09T04:13:12;11.65;;;8.18;;
74309;SDS011;62722;51.142;17.052;2022-09-09T04:15:41;14.00;;;8.10;;
74309;SDS011;62722;51.142;17.052;2022-09-09T04:18:09;12.98;;;8.32;;
74309;SDS011;62722;51.142;17.052;2022-09-09T04:20:37;12.18;;;7.55;;
74309;SDS011;62722;51.142;17.052;2022-09-09T04:23:05;11.98;;;8.00;;
74309;SDS011;62722;51.142;17.052;2022-09-09T04:25:32;14.65;;;8.55;;
74309;SDS011;62722;51.142;17.052;2022-09-09T04:27:59;13.38;;;8.50;;
74309;SDS011;62722;51.142;17.052;2022-09-09T04:30:28;13.18;;;8.57;;
74309;SDS011;62722;51.142;17.052;2022-09-09T04:32:56;14.85;;;8.85;;
74309;SDS011;62722;51.142;17.052;2022-09-09T04:35:23;14.93;;;9.63;;
74309;SDS011;62722;51.142;17.052;2022-09-09T04:37:50;13.18;;;8.55;;
74309;SDS011;62722;51.142;17.052;2022-09-09T04:40:22;12.73;;;8.35;;
74309;SDS011;62722;51.142;17.052;2022-09-09T04:42:49;12.30;;;8.55;;
74309;SDS011;62722;51.142;17.052;2022-09-09T04:45:16;15.27;;;8.52;;
74309;SDS011;62722;51.142;17.052;2022-09-09T04:47:44;12.55;;;7.95;;
74309;SDS011;62722;51.142;17.052;2022-09-09T04:50:11;22.15;;;14.05;;
74309;SDS011;62722;51.142;17.052;2022-09-09T04:52:38;29.40;;;17.90;;
74309;SDS011;62722;51.142;17.052;2022-09-09T04:55:06;16.58;;;9.48;;
74309;SDS011;62722;51.142;17.052;2022-09-09T04:57:36;17.38;;;11.00;;
74309;SDS011;62722;51.142;17.052;2022-09-09T05:00:03;14.43;;;8.02;;
74309;SDS011;62722;51.142;17.052;2022-09-09T05:02:31;15.38;;;9.38;;
74309;SDS011;62722;51.142;17.052;2022-09-09T05:04:58;15.38;;;9.82;;
74309;SDS011;62722;51.142;17.052;2022-09-09T05:07:26;15.27;;;9.95;;
74309;SDS011;62722;51.142;17.052;2022-09-09T05:09:54;15.82;;;9.65;;
74309;SDS011;62722;51.142;17.052;2022-09-09T05:12:21;15.48;;;9.20;;
74309;SDS011;62722;51.142;17.052;2022-09-09T05:14:52;16.70;;;9.65;;
74309;SDS011;62722;51.142;17.052;2022-09-09T05:17:20;16.77;;;9.80;;
74309;SDS011;62722;51.142;17.052;2022-09-09T05:19:48;15.88;;;10.35;;
74309;SDS011;62722;51.142;17.052;2022-09-09T05:22:18;19.17;;;11.32;;
74309;SDS011;62722;51.142;17.052;2022-09-09T05:24:45;18.88;;;11.50;;
74309;SDS011;62722;51.142;17.052;2022-09-09T05:27:13;22.30;;;11.57;;
74309;SDS011;62722;51.142;17.052;2022-09-09T05:29:40;20.88;;;11.90;;
74309;SDS011;62722;51.142;17.052;2022-09-09T05:32:11;18.58;;;10.93;;
74309;SDS011;62722;51.142;17.052;2022-09-09T05:34:40;16.95;;;10.65;;
74309;SDS011;62722;51.142;17.052;2022-09-09T05:37:07;18.73;;;9.95;;
74309;SDS011;62722;51.142;17.052;2022-09-09T05:39:34;17.67;;;11.20;;
74309;SDS011;62722;51.142;17.052;2022-09-09T05:42:03;20.75;;;11.80;;
74309;SDS011;62722;51.142;17.052;2022-09-09T05:44:31;18.85;;;11.40;;
74309;SDS011;62722;51.142;17.052;2022-09-09T05:46:58;20.85;;;11.68;;
74309;SDS011;62722;51.142;17.052;2022-09-09T05:49:27;18.75;;;11.60;;
74309;SDS011;62722;51.142;17.052;2022-09-09T05:51:54;19.77;;;10.32;;
74309;SDS011;62722;51.142;17.052;2022-09-09T05:54:21;18.02;;;10.80;;
74309;SDS011;62722;51.142;17.052;2022-09-09T05:56:49;21.02;;;12.20;;
74309;SDS011;62722;51.142;17.052;2022-09-09T05:59:16;17.08;;;10.05;;
74309;SDS011;62722;51.142;17.052;2022-09-09T06:01:43;17.63;;;11.13;;
74309;SDS011;62722;51.142;17.052;2022-09-09T06:04:11;18.02;;;10.75;;
74309;SDS011;62722;51.142;17.052;2022-09-09T06:06:40;17.27;;;10.02;;
74309;SDS011;62722;51.142;17.052;2022-09-09T06:09:08;13.85;;;8.85;;
74309;SDS011;62722;51.142;17.052;2022-09-09T06:11:37;16.33;;;10.02;;
74309;SDS011;62722;51.142;17.052;2022-09-09T06:14:05;14.00;;;9.32;;
74309;SDS011;62722;51.142;17.052;2022-09-09T06:16:34;17.67;;;10.43;;
74309;SDS011;62722;51.142;17.052;2022-09-09T06:19:02;15.10;;;10.13;;
74309;SDS011;62722;51.142;17.052;2022-09-09T06:21:30;14.07;;;8.68;;
74309;SDS011;62722;51.142;17.052;2022-09-09T06:24:00;13.93;;;9.05;;
74309;SDS011;62722;51.142;17.052;2022-09-09T06:26:29;14.40;;;8.98;;
74309;SDS011;62722;51.142;17.052;2022-09-09T06:28:58;13.13;;;9.05;;
74309;SDS011;62722;51.142;17.052;2022-09-09T06:31:28;12.98;;;8.02;;
74309;SDS011;62722;51.142;17.052;2022-09-09T06:33:57;10.68;;;7.60;;
74309;SDS011;62722;51.142;17.052;2022-09-09T06:36:26;12.80;;;7.88;;
74309;SDS011;62722;51.142;17.052;2022-09-09T06:38:55;13.55;;;9.25;;
74309;SDS011;62722;51.142;17.052;2022-09-09T06:41:24;13.43;;;8.20;;
74309;SDS011;62722;51.142;17.052;2022-09-09T06:43:52;13.77;;;8.80;;
74309;SDS011;62722;51.142;17.052;2022-09-09T06:46:21;12.80;;;8.05;;
74309;SDS011;62722;51.142;17.052;2022-09-09T06:48:52;12.13;;;8.23;;
74309;SDS011;62722;51.142;17.052;2022-09-09T06:51:22;13.95;;;8.15;;
74309;SDS011;62722;51.142;17.052;2022-09-09T06:53:51;13.48;;;8.15;;
74309;SDS011;62722;51.142;17.052;2022-09-09T06:56:25;11.45;;;8.40;;
74309;SDS011;62722;51.142;17.052;2022-09-09T06:58:56;11.80;;;7.47;;
74309;SDS011;62722;51.142;17.052;2022-09-09T07:01:25;10.35;;;6.95;;
74309;SDS011;62722;51.142;17.052;2022-09-09T07:03:53;12.35;;;7.63;;
74309;SDS011;62722;51.142;17.052;2022-09-09T07:06:23;10.93;;;7.57;;
74309;SDS011;62722;51.142;17.052;2022-09-09T07:08:51;10.48;;;8.05;;
74309;SDS011;62722;51.142;17.052;2022-09-09T07:11:20;13.07;;;8.60;;
74309;SDS011;62722;51.142;17.052;2022-09-09T07:13:50;10.93;;;7.78;;
74309;SDS011;62722;51.142;17.052;2022-09-09T07:16:18;8.85;;;6.43;;
74309;SDS011;62722;51.142;17.052;2022-09-09T07:18:48;9.00;;;6.22;;
74309;SDS011;62722;51.142;17.052;2022-09-09T07:21:16;8.35;;;5.85;;
74309;SDS011;62722;51.142;17.052;2022-09-09T07:23:44;7.40;;;4.95;;
74309;SDS011;62722;51.142;17.052;2022-09-09T07:26:12;7.60;;;4.97;;
74309;SDS011;62722;51.142;17.052;2022-09-09T07:28:41;9.38;;;5.43;;
74309;SDS011;62722;51.142;17.052;2022-09-09T07:31:12;7.75;;;5.20;;
74309;SDS011;62722;51.142;17.052;2022-09-09T07:33:42;8.30;;;4.82;;
74309;SDS011;62722;51.142;17.052;2022-09-09T07:36:12;6.50;;;4.28;;
74309;SDS011;62722;51.142;17.052;2022-09-09T07:38:41;7.13;;;4.90;;
74309;SDS011;62722;51.142;17.052;2022-09-09T07:41:12;6.13;;;4.75;;
74309;SDS011;62722;51.142;17.052;2022-09-09T07:43:40;6.13;;;4.90;;
74309;SDS011;62722;51.142;17.052;2022-09-09T07:46:10;7.30;;;4.15;;
74309;SDS011;62722;51.142;17.052;2022-09-09T07:48:43;7.38;;;3.90;;
74309;SDS011;62722;51.142;17.052;2022-09-09T07:51:11;5.70;;;3.55;;
74309;SDS011;62722;51.142;17.052;2022-09-09T07:53:42;6.65;;;3.60;;
74309;SDS011;62722;51.142;17.052;2022-09-09T07:56:10;7.70;;;4.00;;
74309;SDS011;62722;51.142;17.052;2022-09-09T07:58:39;6.22;;;3.83;;
74309;SDS011;62722;51.142;17.052;2022-09-09T08:01:08;6.40;;;4.15;;
74309;SDS011;62722;51.142;17.052;2022-09-09T08:03:38;8.57;;;4.10;;
74309;SDS011;62722;51.142;17.052;2022-09-09T08:06:06;4.78;;;3.53;;
74309;SDS011;62722;51.142;17.052;2022-09-09T08:08:35;6.22;;;3.90;;
74309;SDS011;62722;51.142;17.052;2022-09-09T08:11:05;5.65;;;3.60;;
74309;SDS011;62722;51.142;17.052;2022-09-09T08:13:34;5.93;;;3.65;;
74309;SDS011;62722;51.142;17.052;2022-09-09T08:16:06;4.95;;;3.17;;
74309;SDS011;62722;51.142;17.052;2022-09-09T08:18:34;9.13;;;4.07;;
74309;SDS011;62722;51.142;17.052;2022-09-09T08:21:08;8.82;;;3.30;;
74309;SDS011;62722;51.142;17.052;2022-09-09T08:23:38;5.93;;;3.55;;
74309;SDS011;62722;51.142;17.052;2022-09-09T08:26:07;7.22;;;3.03;;
74309;SDS011;62722;51.142;17.052;2022-09-09T08:28:37;5.18;;;3.22;;
74309;SDS011;62722;51.142;17.052;2022-09-09T08:31:06;5.40;;;3.15;;
74309;SDS011;62722;51.142;17.052;2022-09-09T08:33:37;5.20;;;2.97;;
74309;SDS011;62722;51.142;17.052;2022-09-09T08:36:05;4.70;;;3.10;;
74309;SDS011;62722;51.142;17.052;2022-09-09T08:38:35;5.85;;;3.15;;
74309;SDS011;62722;51.142;17.052;2022-09-09T08:41:09;6.20;;;2.88;;
74309;SDS011;62722;51.142;17.052;2022-09-09T08:43:46;3.83;;;2.47;;
74309;SDS011;62722;51.142;17.052;2022-09-09T08:46:26;4.53;;;2.55;;
74309;SDS011;62722;51.142;17.052;2022-09-09T08:49:00;4.25;;;2.90;;
74309;SDS011;62722;51.142;17.052;2022-09-09T08:51:37;5.90;;;3.33;;
74309;SDS011;62722;51.142;17.052;2022-09-09T08:54:07;4.63;;;2.90;;
74309;SDS011;62722;51.142;17.052;2022-09-09T08:56:35;4.35;;;2.80;;
74309;SDS011;62722;51.142;17.052;2022-09-09T08:59:03;4.90;;;2.50;;
74309;SDS011;62722;51.142;17.052;2022-09-09T09:01:37;3.03;;;2.05;;
74309;SDS011;62722;51.142;17.052;2022-09-09T09:04:19;4.15;;;2.40;;
74309;SDS011;62722;51.142;17.052;2022-09-09T09:06:59;4.32;;;2.58;;
74309;SDS011;62722;51.142;17.052;2022-09-09T09:09:43;3.80;;;2.03;;
74309;SDS011;62722;51.142;17.052;2022-09-09T09:12:24;4.38;;;2.38;;
74309;SDS011;62722;51.142;17.052;2022-09-09T09:14:54;4.05;;;2.13;;
74309;SDS011;62722;51.142;17.052;2022-09-09T09:17:23;4.15;;;2.40;;
74309;SDS011;62722;51.142;17.052;2022-09-09T09:19:55;3.78;;;2.00;;
74309;SDS011;62722;51.142;17.052;2022-09-09T09:22:26;3.30;;;2.10;;
74309;SDS011;62722;51.142;17.052;2022-09-09T09:25:02;4.53;;;2.13;;
74309;SDS011;62722;51.142;17.052;2022-09-09T09:27:39;3.45;;;2.00;;
74309;SDS011;62722;51.142;17.052;2022-09-09T09:30:12;4.97;;;2.17;;
74309;SDS011;62722;51.142;17.052;2022-09-09T09:32:44;3.97;;;2.58;;
74309;SDS011;62722;51.142;17.052;2022-09-09T09:35:19;3.42;;;2.05;;
74309;SDS011;62722;51.142;17.052;2022-09-09T09:37:46;3.65;;;2.00;;
74309;SDS011;62722;51.142;17.052;2022-09-09T09:40:16;4.25;;;1.92;;
74309;SDS011;62722;51.142;17.052;2022-09-09T09:42:48;2.95;;;2.00;;
74309;SDS011;62722;51.142;17.052;2022-09-09T09:45:21;3.28;;;1.58;;
74309;SDS011;62722;51.142;17.052;2022-09-09T09:47:57;4.32;;;1.95;;
74309;SDS011;62722;51.142;17.052;2022-09-09T09:50:25;3.67;;;2.30;;
74309;SDS011;62722;51.142;17.052;2022-09-09T09:52:53;5.22;;;2.17;;
74309;SDS011;62722;51.142;17.052;2022-09-09T09:55:24;3.35;;;1.77;;
74309;SDS011;62722;51.142;17.052;2022-09-09T09:57:52;4.18;;;2.63;;
74309;SDS011;62722;51.142;17.052;2022-09-09T10:00:21;4.38;;;1.85;;
74309;SDS011;62722;51.142;17.052;2022-09-09T10:02:49;4.57;;;2.53;;
74309;SDS011;62722;51.142;17.052;2022-09-09T10:05:19;4.05;;;1.80;;
74309;SDS011;62722;51.142;17.052;2022-09-09T10:07:57;5.43;;;2.28;;
74309;SDS011;62722;51.142;17.052;2022-09-09T10:10:32;4.57;;;2.13;;
74309;SDS011;62722;51.142;17.052;2022-09-09T10:13:14;3.28;;;2.10;;
74309;SDS011;62722;51.142;17.052;2022-09-09T10:15:48;3.13;;;1.85;;
74309;SDS011;62722;51.142;17.052;2022-09-09T10:18:33;4.13;;;1.80;;
74309;SDS011;62722;51.142;17.052;2022-09-09T10:21:10;4.00;;;1.80;;
74309;SDS011;62722;51.142;17.052;2022-09-09T10:23:56;4.05;;;2.10;;
74309;SDS011;62722;51.142;17.052;2022-09-09T10:26:38;3.28;;;1.58;;
74309;SDS011;62722;51.142;17.052;2022-09-09T10:29:19;1.63;;;1.00;;
74309;SDS011;62722;51.142;17.052;2022-09-09T10:32:02;2.60;;;1.08;;
74309;SDS011;62722;51.142;17.052;2022-09-09T10:34:53;2.88;;;1.25;;
74309;SDS011;62722;51.142;17.052;2022-09-09T10:37:28;2.33;;;1.35;;
74309;SDS011;62722;51.142;17.052;2022-09-09T10:40:18;3.22;;;1.60;;
74309;SDS011;62722;51.142;17.052;2022-09-09T10:42:55;4.43;;;1.40;;
74309;SDS011;62722;51.142;17.052;2022-09-09T10:45:32;3.42;;;1.50;;
74309;SDS011;62722;51.142;17.052;2022-09-09T10:48:11;3.97;;;1.88;;
74309;SDS011;62722;51.142;17.052;2022-09-09T10:50:53;3.10;;;1.40;;
74309;SDS011;62722;51.142;17.052;2022-09-09T10:53:30;2.88;;;1.20;;
74309;SDS011;62722;51.142;17.052;2022-09-09T10:56:08;3.17;;;1.35;;
74309;SDS011;62722;51.142;17.052;2022-09-09T10:58:41;4.13;;;1.58;;
74309;SDS011;62722;51.142;17.052;2022-09-09T11:01:15;2.95;;;1.30;;
74309;SDS011;62722;51.142;17.052;2022-09-09T11:03:49;4.70;;;1.58;;
74309;SDS011;62722;51.142;17.052;2022-09-09T11:06:22;4.60;;;1.80;;
74309;SDS011;62722;51.142;17.052;2022-09-09T11:08:55;3.40;;;1.58;;
74309;SDS011;62722;51.142;17.052;2022-09-09T11:11:27;3.90;;;1.80;;
74309;SDS011;62722;51.142;17.052;2022-09-09T11:14:01;3.35;;;1.52;;
74309;SDS011;62722;51.142;17.052;2022-09-09T11:16:36;2.30;;;1.30;;
74309;SDS011;62722;51.142;17.052;2022-09-09T11:19:11;2.58;;;1.33;;
74309;SDS011;62722;51.142;17.052;2022-09-09T11:21:42;2.47;;;1.30;;
74309;SDS011;62722;51.142;17.052;2022-09-09T11:24:13;5.32;;;1.30;;
74309;SDS011;62722;51.142;17.052;2022-09-09T11:26:49;4.57;;;1.50;;
74309;SDS011;62722;51.142;17.052;2022-09-09T11:32:52;2.85;;;1.52;;
74309;SDS011;62722;51.142;17.052;2022-09-09T11:35:43;2.42;;;1.20;;
74309;SDS011;62722;51.142;17.052;2022-09-09T11:38:23;2.97;;;1.30;;
74309;SDS011;62722;51.142;17.052;2022-09-09T11:40:54;2.35;;;1.40;;
74309;SDS011;62722;51.142;17.052;2022-09-09T11:43:26;3.58;;;1.38;;
74309;SDS011;62722;51.142;17.052;2022-09-09T11:45:58;3.15;;;1.20;;
74309;SDS011;62722;51.142;17.052;2022-09-09T11:48:34;3.58;;;1.20;;
74309;SDS011;62722;51.142;17.052;2022-09-09T11:51:04;3.17;;;1.20;;
74309;SDS011;62722;51.142;17.052;2022-09-09T11:53:34;3.60;;;1.40;;
74309;SDS011;62722;51.142;17.052;2022-09-09T11:56:06;4.05;;;1.42;;
74309;SDS011;62722;51.142;17.052;2022-09-09T11:58:43;2.15;;;1.20;;
74309;SDS011;62722;51.142;17.052;2022-09-09T12:01:28;3.35;;;1.20;;
74309;SDS011;62722;51.142;17.052;2022-09-09T12:04:11;2.40;;;1.10;;
74309;SDS011;62722;51.142;17.052;2022-09-09T12:06:41;4.28;;;1.40;;
74309;SDS011;62722;51.142;17.052;2022-09-09T12:09:16;4.00;;;1.40;;
74309;SDS011;62722;51.142;17.052;2022-09-09T12:11:48;2.20;;;1.10;;
74309;SDS011;62722;51.142;17.052;2022-09-09T12:14:19;3.00;;;1.38;;
74309;SDS011;62722;51.142;17.052;2022-09-09T12:16:49;3.38;;;1.33;;
74309;SDS011;62722;51.142;17.052;2022-09-09T12:19:18;3.35;;;1.10;;
74309;SDS011;62722;51.142;17.052;2022-09-09T12:21:52;2.63;;;1.30;;
74309;SDS011;62722;51.142;17.052;2022-09-09T12:24:28;2.83;;;1.50;;
74309;SDS011;62722;51.142;17.052;2022-09-09T12:27:02;3.50;;;1.40;;
74309;SDS011;62722;51.142;17.052;2022-09-09T12:29:37;4.00;;;1.30;;
74309;SDS011;62722;51.142;17.052;2022-09-09T12:32:11;3.58;;;1.20;;
74309;SDS011;62722;51.142;17.052;2022-09-09T12:34:42;2.85;;;1.20;;
74309;SDS011;62722;51.142;17.052;2022-09-09T12:37:17;2.67;;;1.30;;
74309;SDS011;62722;51.142;17.052;2022-09-09T12:39:53;3.67;;;1.40;;
74309;SDS011;62722;51.142;17.052;2022-09-09T12:42:23;2.90;;;1.50;;
74309;SDS011;62722;51.142;17.052;2022-09-09T12:44:52;2.55;;;1.10;;
74309;SDS011;62722;51.142;17.052;2022-09-09T12:47:28;3.35;;;1.40;;
74309;SDS011;62722;51.142;17.052;2022-09-09T12:50:01;3.78;;;1.45;;
74309;SDS011;62722;51.142;17.052;2022-09-09T12:52:30;2.90;;;1.48;;
74309;SDS011;62722;51.142;17.052;2022-09-09T12:55:00;2.83;;;1.30;;
74309;SDS011;62722;51.142;17.052;2022-09-09T12:57:31;3.03;;;1.20;;
74309;SDS011;62722;51.142;17.052;2022-09-09T13:00:06;3.58;;;1.52;;
74309;SDS011;62722;51.142;17.052;2022-09-09T13:02:47;2.65;;;1.42;;
74309;SDS011;62722;51.142;17.052;2022-09-09T13:05:17;4.13;;;1.60;;
74309;SDS011;62722;51.142;17.052;2022-09-09T13:07:47;3.05;;;1.50;;
74309;SDS011;62722;51.142;17.052;2022-09-09T13:10:15;3.00;;;1.60;;
74309;SDS011;62722;51.142;17.052;2022-09-09T13:12:49;4.93;;;2.38;;
74309;SDS011;62722;51.142;17.052;2022-09-09T13:15:19;3.58;;;2.28;;
74309;SDS011;62722;51.142;17.052;2022-09-09T13:17:52;3.65;;;1.73;;
74309;SDS011;62722;51.142;17.052;2022-09-09T13:20:22;2.67;;;1.55;;
74309;SDS011;62722;51.142;17.052;2022-09-09T13:22:51;2.85;;;1.60;;
74309;SDS011;62722;51.142;17.052;2022-09-09T13:25:21;3.75;;;1.92;;
74309;SDS011;62722;51.142;17.052;2022-09-09T13:27:55;2.60;;;1.40;;
74309;SDS011;62722;51.142;17.052;2022-09-09T13:30:25;2.67;;;1.40;;
74309;SDS011;62722;51.142;17.052;2022-09-09T13:35:48;3.15;;;1.40;;
74309;SDS011;62722;51.142;17.052;2022-09-09T13:38:17;2.72;;;1.60;;
74309;SDS011;62722;51.142;17.052;2022-09-09T13:40:57;3.25;;;1.77;;
74309;SDS011;62722;51.142;17.052;2022-09-09T13:43:27;2.55;;;1.40;;
74309;SDS011;62722;51.142;17.052;2022-09-09T13:45:58;3.67;;;1.77;;
74309;SDS011;62722;51.142;17.052;2022-09-09T13:48:28;3.30;;;1.50;;
74309;SDS011;62722;51.142;17.052;2022-09-09T13:51:00;4.10;;;1.55;;
74309;SDS011;62722;51.142;17.052;2022-09-09T13:53:30;3.00;;;1.40;;
74309;SDS011;62722;51.142;17.052;2022-09-09T13:55:57;4.18;;;1.65;;
74309;SDS011;62722;51.142;17.052;2022-09-09T13:58:26;3.85;;;1.50;;
74309;SDS011;62722;51.142;17.052;2022-09-09T14:00:54;2.42;;;1.27;;
74309;SDS011;62722;51.142;17.052;2022-09-09T14:03:22;2.40;;;1.40;;
74309;SDS011;62722;51.142;17.052;2022-09-09T14:05:51;2.40;;;1.40;;
74309;SDS011;62722;51.142;17.052;2022-09-09T14:08:23;2.42;;;1.23;;
74309;SDS011;62722;51.142;17.052;2022-09-09T14:10:52;2.97;;;1.40;;
74309;SDS011;62722;51.142;17.052;2022-09-09T14:13:21;2.75;;;1.30;;
74309;SDS011;62722;51.142;17.052;2022-09-09T14:15:48;3.38;;;1.60;;
74309;SDS011;62722;51.142;17.052;2022-09-09T14:18:16;2.13;;;1.42;;
74309;SDS011;62722;51.142;17.052;2022-09-09T14:20:44;3.50;;;1.50;;
74309;SDS011;62722;51.142;17.052;2022-09-09T14:23:12;3.55;;;1.70;;
74309;SDS011;62722;51.142;17.052;2022-09-09T14:25:41;3.85;;;1.45;;
74309;SDS011;62722;51.142;17.052;2022-09-09T14:28:10;8.23;;;1.60;;
74309;SDS011;62722;51.142;17.052;2022-09-09T14:30:38;2.80;;;1.45;;
74309;SDS011;62722;51.142;17.052;2022-09-09T14:33:07;2.30;;;1.23;;
74309;SDS011;62722;51.142;17.052;2022-09-09T14:35:36;3.13;;;1.75;;
74309;SDS011;62722;51.142;17.052;2022-09-09T14:38:04;2.35;;;1.55;;
74309;SDS011;62722;51.142;17.052;2022-09-09T14:40:33;3.08;;;1.67;;
74309;SDS011;62722;51.142;17.052;2022-09-09T14:43:01;3.17;;;1.50;;
74309;SDS011;62722;51.142;17.052;2022-09-09T14:45:28;3.55;;;1.60;;
74309;SDS011;62722;51.142;17.052;2022-09-09T14:47:56;3.80;;;1.42;;
74309;SDS011;62722;51.142;17.052;2022-09-09T14:50:24;5.00;;;1.60;;
74309;SDS011;62722;51.142;17.052;2022-09-09T14:52:52;3.17;;;1.90;;
74309;SDS011;62722;51.142;17.052;2022-09-09T14:55:19;3.40;;;1.80;;
74309;SDS011;62722;51.142;17.052;2022-09-09T14:57:48;2.72;;;1.58;;
74309;SDS011;62722;51.142;17.052;2022-09-09T15:00:15;4.55;;;1.60;;
74309;SDS011;62722;51.142;17.052;2022-09-09T15:02:42;3.75;;;1.85;;
74309;SDS011;62722;51.142;17.052;2022-09-09T15:05:09;3.28;;;1.58;;